Time;durP1;ratioP1;P1;durP2;ratioP2;P2;SDS_P1;SDS_P2;PMS_P1;PMS_P2;Temp;Humidity;BMP_temperature;BMP_pressure;BME280_temperature;BME280_humidity;BME280_pressure;Samples;Min_cycle;Max_cycle;Signal;HPM_P1;HPM_P2
2022/09/16 00:01:48;;;;;;;4.75;0.85;;;10.70;99.90;;;;;;4885594;29;20088;-96
2022/09/16 00:04:20;;;;;;;7.65;1.00;;;10.70;99.90;;;;;;4871514;29;20047;-96
2022/09/16 00:06:51;;;;;;;16.48;0.98;;;10.60;99.90;;;;;;4869972;29;20049;-96
2022/09/16 00:09:19;;;;;;;13.02;1.40;;;10.60;99.90;;;;;;4886254;29;20110;-96
2022/09/16 00:11:48;;;;;;;14.75;1.58;;;10.70;99.90;;;;;;4867745;29;20446;-96
2022/09/16 00:14:17;;;;;;;8.65;1.20;;;10.60;99.90;;;;;;4868853;29;20155;-96
2022/09/16 00:16:47;;;;;;;10.80;1.83;;;10.80;99.90;;;;;;4873868;29;20049;-96
2022/09/16 00:19:23;;;;;;;5.88;1.08;;;10.80;99.90;;;;;;4873125;29;20561;-96
2022/09/16 00:22:03;;;;;;;8.50;1.20;;;10.90;99.90;;;;;;4888406;29;20048;-96
2022/09/16 00:24:44;;;;;;;5.60;1.15;;;11.00;99.90;;;;;;4886178;29;20048;-95
2022/09/16 00:31:21;;;;;;;;;;;;;;;;;;;;;
2022/09/16 00:34:04;;;;;;;11.95;1.88;;;11.10;99.90;;;;;;4897089;29;20056;-96
2022/09/16 00:36:45;;;;;;;10.80;1.00;;;11.20;99.90;;;;;;4881600;29;20100;-96
2022/09/16 00:40:09;;;;;;;8.13;0.90;;;11.20;99.90;;;;;;4880207;29;20055;-96
2022/09/16 00:42:46;;;;;;;8.90;1.55;;;11.10;99.90;;;;;;4868812;29;20139;-96
2022/09/16 00:45:21;;;;;;;6.28;0.80;;;11.20;99.90;;;;;;4868007;29;20056;-96
2022/09/16 00:48:36;;;;;;;6.43;1.25;;;11.20;99.90;;;;;;4869021;29;20040;-96
2022/09/16 00:51:24;;;;;;;9.25;1.23;;;11.20;99.90;;;;;;4854067;29;20485;-96
2022/09/16 00:57:06;;;;;;;7.25;1.45;;;11.40;99.90;;;;;;4897091;29;20060;-96
2022/09/16 00:59:43;;;;;;;6.10;1.23;;;11.10;99.90;;;;;;4873493;29;20159;-96
2022/09/16 01:02:31;;;;;;;11.82;1.20;;;11.00;99.90;;;;;;4878606;29;20045;-96
2022/09/16 01:05:44;;;;;;;7.43;1.20;;;10.90;99.90;;;;;;4915014;28;20052;-96
2022/09/16 01:08:20;;;;;;;8.95;1.00;;;10.80;99.90;;;;;;4897709;29;20116;-96
2022/09/16 01:11:01;;;;;;;11.13;1.15;;;11.10;99.90;;;;;;4893531;29;20057;-96
2022/09/16 01:13:43;;;;;;;;;;;10.70;99.90;;;;;;4893482;29;20065;-96
2022/09/16 01:16:31;;;;;;;8.73;1.33;;;10.80;99.90;;;;;;4896959;29;20343;-96
2022/09/16 01:19:45;;;;;;;9.52;1.08;;;10.90;99.90;;;;;;4887911;29;20052;-96
2022/09/16 01:23:00;;;;;;;9.93;1.15;;;10.70;99.90;;;;;;4888564;29;20057;-96
2022/09/16 01:26:03;;;;;;;9.50;1.08;;;10.80;99.90;;;;;;4882257;29;20131;-96
2022/09/16 01:29:07;;;;;;;6.97;0.93;;;10.80;99.90;;;;;;4916871;29;20113;-96
2022/09/16 01:32:02;;;;;;;7.07;0.73;;;10.80;99.90;;;;;;4900073;29;20056;-96
2022/09/16 01:35:26;;;;;;;9.88;1.00;;;10.80;99.90;;;;;;4898103;29;20069;-96
2022/09/16 01:37:59;;;;;;;6.43;0.80;;;10.80;99.90;;;;;;4899477;29;20062;-96
2022/09/16 01:40:38;;;;;;;11.05;1.10;;;10.10;99.90;;;;;;4874939;29;20052;-96
2022/09/16 01:43:24;;;;;;;12.10;0.80;;;10.70;99.90;;;;;;4876889;29;20052;-96
2022/09/16 03:34:01;;;;;;;16.27;1.87;;;10.40;99.90;;;;;;5458164;23;19927;-96
2022/09/16 03:36:56;;;;;;;9.63;1.02;;;10.30;99.90;;;;;;4901519;29;20772;-96
2022/09/16 03:39:37;;;;;;;11.35;1.20;;;10.20;99.90;;;;;;4870207;29;20504;-96
2022/09/16 03:45:36;;;;;;;10.73;1.17;;;10.10;99.90;;;;;;4884975;29;20446;-96
2022/09/16 03:48:24;;;;;;;7.05;0.90;;;10.00;99.90;;;;;;4883830;29;20135;-96
2022/09/16 03:51:11;;;;;;;8.57;1.58;;;10.00;99.90;;;;;;4866666;29;20052;-96
2022/09/16 03:54:07;;;;;;;9.45;1.35;;;9.90;99.90;;;;;;4866781;29;20552;-96
2022/09/16 03:57:14;;;;;;;12.27;1.65;;;9.90;99.90;;;;;;4854767;29;20065;-96
2022/09/16 04:00:52;;;;;;;;;;;;;;;;;;;;;
2022/09/16 04:06:34;;;;;;;14.25;1.77;;;9.80;99.90;;;;;;4859765;29;20059;-96
2022/09/16 04:09:15;;;;;;;19.52;1.38;;;9.90;99.90;;;;;;4867126;29;20064;-96
2022/09/16 04:12:10;;;;;;;22.73;2.40;;;9.90;99.90;;;;;;4883891;29;20139;-96
2022/09/16 06:32:06;;;;;;;14.95;2.17;;;10.90;99.90;;;;;;5471684;23;20056;-88
2022/09/16 08:25:22;;;;;;;;;;;;;;;;;;;;;
2022/09/16 08:35:13;;;;;;;12.68;1.83;;;14.20;99.90;;;;;;4919479;23;20047;-87
2022/09/16 08:49:49;;;;;;;12.35;1.90;;;14.60;99.90;;;;;;4872243;29;19946;-88
2022/09/16 08:53:25;;;;;;;16.27;2.30;;;15.10;99.90;;;;;;4935770;23;20150;-87
2022/09/16 08:56:41;;;;;;;12.95;1.50;;;15.20;99.90;;;;;;4890353;29;20063;-86
2022/09/16 08:59:27;;;;;;;12.65;1.73;;;15.10;99.90;;;;;;4894441;29;20052;-87
2022/09/16 09:02:04;;;;;;;16.30;2.28;;;15.20;99.90;;;;;;4880083;29;20568;-85
2022/09/16 09:05:07;;;;;;;;;;;;;;;;;;;;;
2022/09/16 09:07:39;;;;;;;;;;;15.50;99.90;;;;;;4911607;29;20508;-84
2022/09/16 09:10:39;;;;;;;19.70;3.38;;;15.50;99.90;;;;;;4895156;29;19927;-86
2022/09/16 09:13:39;;;;;;;19.05;2.22;;;15.40;99.90;;;;;;4878849;29;20054;-85
2022/09/16 09:16:37;;;;;;;16.55;1.95;;;15.40;99.90;;;;;;4895131;29;20382;-85
2022/09/16 09:19:31;;;;;;;15.20;2.35;;;14.90;99.90;;;;;;4894289;29;20076;-85
2022/09/16 09:22:13;;;;;;;14.88;2.83;;;15.70;99.90;;;;;;4926234;29;20052;-86
2022/09/16 09:24:57;;;;;;;12.82;1.90;;;15.60;99.90;;;;;;4894737;29;20091;-85
2022/09/16 09:27:51;;;;;;;14.60;1.80;;;15.40;99.90;;;;;;4909978;29;20040;-88
2022/09/16 09:30:21;;;;;;;12.63;2.15;;;15.40;99.90;;;;;;4895464;29;20115;-86
2022/09/16 09:32:54;;;;;;;19.20;1.77;;;15.30;99.90;;;;;;4910970;29;20111;-86
2022/09/16 09:35:46;;;;;;;;;;;15.40;99.90;;;;;;4914935;29;20525;-85
2022/09/16 09:38:40;;;;;;;8.02;1.63;;;15.50;99.90;;;;;;4896680;29;19923;-85
2022/09/16 09:41:11;;;;;;;14.00;1.90;;;15.50;99.90;;;;;;4913860;29;20075;-87
2022/09/16 09:43:44;;;;;;;10.25;1.42;;;15.60;99.90;;;;;;4913437;29;20084;-86
2022/09/16 09:46:36;;;;;;;15.50;2.55;;;15.70;99.90;;;;;;4914690;29;20104;-85
2022/09/16 09:49:14;;;;;;;11.83;1.50;;;15.90;99.90;;;;;;4900872;29;20508;-94
2022/09/16 09:52:27;;;;;;;22.75;2.38;;;16.20;99.90;;;;;;4898349;29;20060;-85
2022/09/16 10:08:56;;;;;;;12.50;1.60;;;13.70;99.90;;;;;;4912968;29;20118;-89
2022/09/16 10:20:37;;;;;;;12.65;1.70;;;13.90;99.90;;;;;;4918569;28;20127;-94
2022/09/16 10:24:06;;;;;;;11.82;2.00;;;14.10;99.90;;;;;;4887291;29;20075;-94
2022/09/16 10:26:46;;;;;;;11.02;1.52;;;14.50;99.90;;;;;;4880586;29;20047;-95
2022/09/16 10:29:32;;;;;;;;;;;14.70;99.90;;;;;;4887898;29;20116;-95
2022/09/16 10:32:42;;;;;;;9.57;1.50;;;14.90;99.90;;;;;;4918946;29;19931;-95
2022/09/16 10:35:08;;;;;;;13.35;2.47;;;15.10;99.90;;;;;;4917342;29;20052;-96
2022/09/16 10:37:58;;;;;;;13.15;1.85;;;15.30;99.90;;;;;;4886852;29;20394;-96
2022/09/16 11:52:00;;;;;;;15.95;2.33;;;16.20;99.90;;;;;;4996750;23;20053;-88
2022/09/16 12:20:32;;;;;;;14.23;2.53;;;16.40;99.90;;;;;;4847320;29;20109;-86
2022/09/16 12:23:27;;;;;;;19.58;2.92;;;16.50;99.90;;;;;;4852076;29;20056;-86
2022/09/16 12:26:16;;;;;;;24.95;2.90;;;16.50;99.90;;;;;;4874597;29;20518;-87
2022/09/16 12:29:25;;;;;;;18.92;3.05;;;16.50;99.90;;;;;;4858835;29;20045;-87
2022/09/16 12:32:24;;;;;;;;;;;;;;;;;;;;;
2022/09/16 12:35:18;;;;;;;14.50;2.15;;;16.50;99.90;;;;;;4873512;29;20497;-86
2022/09/16 12:37:49;;;;;;;18.38;2.90;;;16.50;99.90;;;;;;4858400;29;20434;-87
2022/09/16 12:40:23;;;;;;;18.30;3.05;;;16.50;99.90;;;;;;4858361;29;20045;-86
2022/09/16 12:43:04;;;;;;;21.75;3.25;;;16.50;99.90;;;;;;4873090;29;20045;-88
2022/09/16 12:45:57;;;;;;;18.13;2.50;;;16.40;99.90;;;;;;4858390;29;20510;-87
2022/09/16 12:48:43;;;;;;;15.68;2.35;;;16.30;99.90;;;;;;4856155;29;20048;-87
2022/09/16 12:51:32;;;;;;;14.23;2.72;;;16.10;99.90;;;;;;4853930;29;20110;-88
2022/09/16 12:54:16;;;;;;;17.90;2.22;;;16.00;99.90;;;;;;4873289;29;20502;-86
2022/09/16 12:56:55;;;;;;;16.63;2.28;;;15.90;99.90;;;;;;4873815;29;20531;-86
2022/09/16 12:59:40;;;;;;;16.73;2.05;;;15.80;99.90;;;;;;4855770;29;20107;-86
2022/09/16 13:02:15;;;;;;;11.38;1.75;;;15.80;99.90;;;;;;4869526;29;20152;-87
2022/09/16 13:04:46;;;;;;;7.97;1.17;;;15.80;99.90;;;;;;4858645;29;20071;-87
2022/09/16 13:07:28;;;;;;;10.77;1.73;;;15.80;99.90;;;;;;4854723;29;20047;-87
2022/09/16 13:10:04;;;;;;;11.30;1.67;;;15.80;99.90;;;;;;4862123;29;20045;-87
2022/09/16 13:12:33;;;;;;;8.07;1.30;;;15.80;99.90;;;;;;4862066;29;20045;-88
2022/09/16 13:15:05;;;;;;;11.85;1.30;;;15.70;99.90;;;;;;4856839;29;20041;-86
2022/09/16 13:17:36;;;;;;;10.68;1.70;;;15.60;99.90;;;;;;4860976;29;20064;-85
2022/09/16 13:20:32;;;;;;;12.32;1.42;;;15.30;99.90;;;;;;4872667;29;20057;-87
2022/09/16 13:54:55;;;;;;;10.27;1.38;;;13.60;99.90;;;;;;4855710;29;20109;-91
2022/09/16 15:11:22;;;;;;;11.10;2.10;;;13.90;99.90;;;;;;4465831;23;21186;-86
2022/09/16 15:14:09;;;;;;;10.48;1.80;;;13.80;99.90;;;;;;5153940;23;20061;-87
2022/09/16 15:27:02;;;;;;;16.30;2.70;;;13.60;99.90;;;;;;4838082;29;20065;-86
2022/09/16 15:30:19;;;;;;;18.67;2.05;;;13.50;99.90;;;;;;4853473;29;20062;-86
2022/09/16 15:33:26;;;;;;;13.18;1.85;;;13.80;99.90;;;;;;4835344;29;20144;-86
2022/09/16 15:36:06;;;;;;;21.17;2.70;;;13.40;99.90;;;;;;4821084;29;20073;-86
2022/09/16 15:38:56;;;;;;;19.40;2.33;;;13.30;99.90;;;;;;4831997;29;20046;-86
2022/09/16 15:41:25;;;;;;;18.05;2.10;;;13.30;99.90;;;;;;4819778;29;20050;-84
2022/09/16 15:43:51;;;;;;;21.10;2.95;;;13.30;99.90;;;;;;4818661;29;20126;-84
2022/09/16 15:46:23;;;;;;;21.13;2.65;;;13.30;99.90;;;;;;4839653;29;20054;-85
2022/09/16 15:48:57;;;;;;;18.75;2.50;;;12.90;99.90;;;;;;4822118;29;20153;-86
2022/09/16 15:51:35;;;;;;;29.98;3.75;;;13.20;99.90;;;;;;4819043;29;20046;-85
2022/09/16 15:54:13;;;;;;;24.35;3.22;;;13.20;99.90;;;;;;4825756;29;20058;-84
2022/09/16 15:56:48;;;;;;;20.38;2.35;;;13.10;99.90;;;;;;4820359;29;20533;-85
2022/09/16 16:00:18;;;;;;;24.40;2.63;;;13.10;99.90;;;;;;4821029;29;20092;-86
2022/09/16 16:02:35;;;;;;;14.48;1.75;;;13.00;99.90;;;;;;4817280;29;20444;-86
2022/09/16 16:09:35;;;;;;;18.25;1.95;;;13.60;99.90;;;;;;4930176;23;20100;-88
2022/09/16 16:13:23;;;;;;;19.25;2.20;;;12.90;99.90;;;;;;4860101;29;20791;-87
2022/09/16 16:15:54;;;;;;;21.00;2.28;;;12.90;99.90;;;;;;4878856;29;20166;-87
2022/09/16 16:18:49;;;;;;;17.83;2.63;;;12.90;99.90;;;;;;4867635;29;20187;-87
2022/09/16 16:21:46;;;;;;;17.92;2.28;;;12.80;99.90;;;;;;4832373;29;20421;-87
2022/09/16 16:24:36;;;;;;;26.67;2.92;;;12.90;99.90;;;;;;4819489;29;20061;-87
2022/09/16 16:27:33;;;;;;;24.70;2.50;;;12.90;99.90;;;;;;4877430;29;20142;-87
2022/09/16 16:30:07;;;;;;;15.52;2.78;;;12.90;99.90;;;;;;4861899;29;20048;-89
2022/09/16 16:42:31;;;;;;;24.00;2.67;;;13.10;99.90;;;;;;5206119;23;20068;-89
2022/09/16 16:45:11;;;;;;;21.23;2.63;;;13.20;99.90;;;;;;4863158;29;20060;-89
2022/09/16 16:47:47;;;;;;;20.17;2.25;;;13.20;99.90;;;;;;4862318;29;20066;-88
2022/09/16 16:50:28;;;;;;;14.43;2.28;;;13.40;99.90;;;;;;4861851;29;20465;-87
2022/09/16 16:53:00;;;;;;;16.55;2.60;;;13.20;99.90;;;;;;4874167;29;20065;-88
2022/09/16 16:55:25;;;;;;;20.08;3.10;;;13.30;99.90;;;;;;4842951;29;20049;-87
2022/09/16 16:57:53;;;;;;;17.95;3.08;;;13.20;99.90;;;;;;4844868;29;20049;-88
2022/09/16 17:00:47;;;;;;;20.42;2.78;;;13.20;99.90;;;;;;4861104;29;20119;-90
2022/09/16 17:03:15;;;;;;;17.67;1.83;;;13.20;99.90;;;;;;4803359;29;20075;-89
2022/09/16 17:05:41;;;;;;;16.80;2.17;;;13.10;99.90;;;;;;4859425;29;20501;-88
2022/09/16 17:08:08;;;;;;;14.93;2.45;;;13.10;99.90;;;;;;4857897;29;20045;-87
2022/09/16 17:10:34;;;;;;;15.82;2.42;;;13.00;99.90;;;;;;4844163;29;20112;-88
2022/09/16 17:13:00;;;;;;;26.08;2.78;;;13.00;99.90;;;;;;4858243;29;20489;-89
2022/09/16 17:15:26;;;;;;;18.80;2.28;;;12.90;99.90;;;;;;4858825;29;20049;-87
2022/09/16 17:18:06;;;;;;;18.40;1.88;;;12.90;99.90;;;;;;4858882;29;20057;-89
2022/09/16 17:20:32;;;;;;;18.23;2.05;;;12.80;99.90;;;;;;4858956;29;20064;-87
2022/09/16 17:25:54;;;;;;;15.25;2.20;;;12.60;99.90;;;;;;4863566;23;20714;-87
2022/09/16 17:28:20;;;;;;;16.13;1.85;;;12.70;99.90;;;;;;4837318;29;20057;-84
2022/09/16 17:30:46;;;;;;;40.85;3.17;;;12.60;99.90;;;;;;4851571;29;20065;-85
2022/09/16 17:33:11;;;;;;;20.95;2.50;;;12.60;99.90;;;;;;4834830;29;20759;-84
2022/09/16 17:36:03;;;;;;;13.90;2.05;;;12.40;99.90;;;;;;4853577;29;20041;-86
2022/09/16 17:39:15;;;;;;;;;;;;;;;;;;;;;
2022/09/16 17:41:31;;;;;;;15.73;2.33;;;12.40;99.90;;;;;;4844874;29;20098;-86
2022/09/16 17:43:58;;;;;;;18.98;3.10;;;12.40;99.90;;;;;;4827410;29;20133;-87
2022/09/16 17:46:28;;;;;;;24.95;3.28;;;12.30;99.90;;;;;;4829055;29;20477;-87
2022/09/16 17:49:16;;;;;;;23.80;2.45;;;12.30;99.90;;;;;;4824662;29;20049;-86
2022/09/16 17:51:42;;;;;;;18.48;2.15;;;12.30;99.90;;;;;;4828937;29;20054;-84
2022/09/16 17:54:09;;;;;;;10.65;1.75;;;12.30;99.90;;;;;;4819403;29;20088;-86
2022/09/16 17:56:35;;;;;;;13.73;2.70;;;12.20;99.90;;;;;;4822425;29;20509;-87
2022/09/16 17:59:01;;;;;;;17.58;1.63;;;12.10;99.90;;;;;;4821632;29;20494;-86
2022/09/16 18:01:34;;;;;;;14.98;2.05;;;12.10;99.90;;;;;;4825912;29;20046;-87
2022/09/16 18:04:03;;;;;;;19.73;2.13;;;12.00;99.90;;;;;;4840796;29;20106;-88
2022/09/16 18:06:34;;;;;;;14.70;2.35;;;12.00;99.90;;;;;;4825294;29;20048;-85
2022/09/16 18:09:15;;;;;;;17.95;3.00;;;12.00;99.90;;;;;;4854413;29;20057;-83
2022/09/16 18:11:40;;;;;;;24.15;2.83;;;12.20;99.90;;;;;;4824368;29;20049;-83
2022/09/16 18:14:09;;;;;;;23.27;2.58;;;12.10;99.90;;;;;;4823211;29;20049;-82
2022/09/16 18:16:35;;;;;;;22.98;3.47;;;12.10;99.90;;;;;;4855301;29;20060;-84
2022/09/16 18:19:01;;;;;;;24.20;3.63;;;12.10;99.90;;;;;;4824561;29;20057;-85
2022/09/16 18:21:49;;;;;;;24.70;3.50;;;12.10;99.90;;;;;;4826067;29;20038;-85
2022/09/16 18:24:26;;;;;;;21.80;2.47;;;12.10;99.90;;;;;;4857493;29;20057;-85
2022/09/16 18:26:52;;;;;;;20.88;2.75;;;12.20;99.90;;;;;;4825043;29;20136;-84
2022/09/16 18:29:18;;;;;;;26.05;2.72;;;12.20;99.90;;;;;;4825234;29;20868;-82
2022/09/16 18:31:48;;;;;;;18.80;2.95;;;12.20;99.90;;;;;;4823961;29;20513;-85
2022/09/16 18:34:37;;;;;;;16.05;2.50;;;12.20;99.90;;;;;;4823057;29;20164;-86
2022/09/16 18:37:03;;;;;;;24.10;4.70;;;12.00;99.90;;;;;;4839816;29;20498;-87
2022/09/16 18:40:10;;;;;;;18.65;3.78;;;12.10;99.90;;;;;;4824688;29;20053;-87
2022/09/16 18:42:36;;;;;;;17.50;3.50;;;11.90;99.90;;;;;;4855969;24;20056;-87
2022/09/16 18:45:02;;;;;;;28.27;3.58;;;12.10;99.90;;;;;;4862595;29;20503;-86
2022/09/16 18:48:07;;;;;;;;;;;;;;;;;;;;;
2022/09/16 18:50:36;;;;;;;21.30;2.55;;;12.10;99.90;;;;;;4876821;29;20048;-88
2022/09/16 18:53:14;;;;;;;26.15;3.20;;;12.10;99.90;;;;;;4878136;29;20386;-87
2022/09/16 18:55:40;;;;;;;20.05;2.25;;;12.10;99.90;;;;;;4876830;29;20394;-86
2022/09/16 18:58:06;;;;;;;18.88;2.25;;;12.10;99.90;;;;;;4862830;29;20052;-87
2022/09/16 19:00:34;;;;;;;17.42;2.65;;;12.10;99.90;;;;;;4894779;29;20073;-86
2022/09/16 19:03:00;;;;;;;21.45;2.83;;;12.10;99.90;;;;;;4878811;29;20804;-85
2022/09/16 19:05:28;;;;;;;26.42;3.40;;;12.10;99.90;;;;;;4877775;29;20135;-86
2022/09/16 19:07:59;;;;;;;21.23;2.55;;;12.10;99.90;;;;;;4878142;29;20068;-84
2022/09/16 19:10:25;;;;;;;23.33;2.65;;;12.10;99.90;;;;;;4876683;29;20100;-85
2022/09/16 19:12:51;;;;;;;18.30;2.90;;;12.20;99.90;;;;;;4876605;29;20140;-84
2022/09/16 19:15:19;;;;;;;24.10;3.22;;;12.20;99.90;;;;;;4875621;29;20054;-84
2022/09/16 19:17:45;;;;;;;12.38;2.55;;;12.10;99.90;;;;;;4875436;29;20048;-83
2022/09/16 19:20:24;;;;;;;15.80;2.50;;;12.10;99.90;;;;;;4892119;29;20052;-84
2022/09/16 19:23:00;;;;;;;19.65;2.80;;;12.00;99.90;;;;;;4877724;29;20053;-85
2022/09/16 19:25:33;;;;;;;18.42;3.35;;;12.00;99.90;;;;;;4878355;29;20055;-86
2022/09/16 19:27:59;;;;;;;;;;;12.10;99.90;;;;;;4878656;29;20053;-87
2022/09/16 19:30:31;;;;;;;23.80;2.42;;;12.10;99.90;;;;;;4862674;29;19927;-86
2022/09/16 19:32:57;;;;;;;23.90;2.60;;;12.10;99.90;;;;;;4875597;29;20697;-85
2022/09/16 19:35:40;;;;;;;41.35;3.88;;;12.10;99.90;;;;;;4876944;29;20513;-83
2022/09/16 19:38:06;;;;;;;21.00;2.70;;;12.10;99.90;;;;;;4859284;29;20477;-84
2022/09/16 19:40:32;;;;;;;21.98;3.60;;;12.20;99.90;;;;;;4876519;29;20059;-85
2022/09/16 19:42:57;;;;;;;20.85;2.35;;;12.10;99.90;;;;;;4876224;29;20056;-85
2022/09/16 19:45:40;;;;;;;19.85;2.20;;;12.10;99.90;;;;;;4860407;29;20520;-84
2022/09/16 19:48:06;;;;;;;30.00;2.65;;;12.20;99.90;;;;;;4860274;29;20092;-84
2022/09/16 19:50:32;;;;;;;16.30;2.50;;;12.10;99.90;;;;;;4876165;29;20060;-85
2022/09/16 19:53:24;;;;;;;21.83;4.00;;;12.10;99.90;;;;;;4875563;29;20064;-86
2022/09/16 19:56:09;;;;;;;21.85;2.97;;;12.10;99.90;;;;;;4869613;29;20461;-88
2022/09/16 19:58:54;;;;;;;24.77;4.45;;;12.10;99.90;;;;;;4875444;29;20049;-85
2022/09/16 20:01:26;;;;;;;21.52;3.03;;;12.10;99.90;;;;;;4873607;29;20116;-85
2022/09/16 20:03:52;;;;;;;29.33;3.80;;;12.20;99.90;;;;;;4857362;29;20163;-85
2022/09/16 20:06:23;;;;;;;23.50;3.20;;;12.20;99.90;;;;;;4856399;29;20105;-85
2022/09/16 20:08:53;;;;;;;28.88;3.67;;;12.20;99.90;;;;;;4857039;29;20397;-85
2022/09/16 20:11:20;;;;;;;26.20;3.15;;;12.20;99.90;;;;;;4856824;29;20454;-84
2022/09/16 20:13:48;;;;;;;25.52;2.95;;;12.20;99.90;;;;;;4857115;29;20053;-85
2022/09/16 20:16:19;;;;;;;26.63;3.13;;;12.20;99.90;;;;;;4857542;29;20819;-86
2022/09/16 20:18:46;;;;;;;28.67;3.83;;;12.20;99.90;;;;;;4856596;29;20141;-85
2022/09/16 20:21:24;;;;;;;22.65;3.08;;;12.20;99.90;;;;;;4857640;29;20123;-86
2022/09/16 20:23:51;;;;;;;22.10;3.70;;;12.20;99.90;;;;;;4856732;29;20101;-86
2022/09/16 20:26:35;;;;;;;20.08;2.92;;;12.20;99.90;;;;;;4858668;29;20140;-87
2022/09/16 20:29:22;;;;;;;19.85;2.70;;;12.10;99.90;;;;;;4858926;29;20057;-87
2022/09/16 20:32:34;;;;;;;17.70;2.67;;;12.00;99.90;;;;;;4859156;29;20501;-85
2022/09/16 20:35:23;;;;;;;14.00;2.47;;;12.10;99.90;;;;;;4854381;24;20189;-87
2022/09/16 20:37:48;;;;;;;21.08;3.35;;;12.10;99.90;;;;;;4874294;29;20049;-86
2022/09/16 20:40:19;;;;;;;19.63;3.38;;;12.00;99.90;;;;;;4839504;29;20052;-85
2022/09/16 20:42:45;;;;;;;25.50;3.42;;;12.00;99.90;;;;;;4839175;29;20155;-87
2022/09/16 20:45:11;;;;;;;27.80;3.50;;;12.00;99.90;;;;;;4852613;29;20517;-85
2022/09/16 20:47:37;;;;;;;22.20;3.08;;;12.10;99.90;;;;;;4831322;29;20466;-87
2022/09/16 20:50:03;;;;;;;26.17;3.22;;;12.10;99.90;;;;;;4841874;29;20049;-87
2022/09/16 20:52:32;;;;;;;24.42;3.58;;;12.10;99.90;;;;;;4840188;29;20520;-86
2022/09/16 20:55:03;;;;;;;28.40;3.83;;;11.70;99.90;;;;;;4840888;29;20140;-86
2022/09/16 20:57:29;;;;;;;25.67;3.20;;;12.10;99.90;;;;;;4840925;29;20042;-87
2022/09/16 20:59:55;;;;;;;24.08;3.58;;;12.10;99.90;;;;;;4858274;29;20117;-88
2022/09/16 21:02:21;;;;;;;32.83;3.97;;;12.20;99.90;;;;;;4842622;29;20045;-86
2022/09/16 21:04:52;;;;;;;23.08;3.15;;;12.20;99.90;;;;;;4843046;29;20064;-86
2022/09/16 21:07:18;;;;;;;20.20;3.20;;;12.30;99.90;;;;;;4843609;29;20108;-87
2022/09/16 21:09:44;;;;;;;24.25;3.22;;;12.30;99.90;;;;;;4841711;29;20049;-86
2022/09/16 21:12:29;;;;;;;26.88;3.50;;;12.30;99.90;;;;;;4843119;29;20085;-85
2022/09/16 21:15:05;;;;;;;21.42;3.15;;;12.30;99.90;;;;;;4842862;29;20247;-86
2022/09/16 21:17:43;;;;;;;25.33;3.08;;;12.30;99.90;;;;;;4843762;29;20051;-87
2022/09/16 21:20:15;;;;;;;23.48;3.20;;;12.20;99.90;;;;;;4842874;29;20052;-87
2022/09/16 21:37:41;;;;;;;21.27;3.40;;;12.20;99.90;;;;;;4897017;29;20493;-87
2022/09/16 21:40:57;;;;;;;27.65;3.58;;;12.10;99.90;;;;;;4882539;29;20043;-87
2022/09/16 21:44:20;;;;;;;25.65;4.00;;;12.10;99.90;;;;;;4870743;23;20079;-87
2022/09/16 21:47:56;;;;;;;22.95;3.13;;;12.10;99.90;;;;;;4801227;29;20059;-87
2022/09/16 21:50:52;;;;;;;24.60;3.55;;;12.10;99.90;;;;;;4787594;29;20065;-88
2022/09/16 21:53:19;;;;;;;20.75;3.42;;;12.10;99.90;;;;;;4786713;29;20093;-88
2022/09/16 21:55:45;;;;;;;15.57;2.58;;;12.10;99.90;;;;;;4786514;29;20097;-87
2022/09/16 21:58:49;;;;;;;23.10;3.20;;;12.10;99.90;;;;;;4809320;29;20114;-88
2022/09/16 22:01:32;;;;;;;17.20;2.75;;;12.00;99.90;;;;;;4841774;29;20505;-86
2022/09/16 22:04:20;;;;;;;22.92;3.55;;;12.30;99.90;;;;;;4841268;29;20469;-87
2022/09/16 22:07:21;;;;;;;26.55;2.72;;;12.10;99.90;;;;;;4841802;29;20066;-89
2022/09/16 22:09:55;;;;;;;22.20;2.83;;;12.10;99.90;;;;;;4786190;23;20083;-87
2022/09/16 23:05:02;;;;;;;24.42;4.03;;;12.20;99.90;;;;;;4839230;29;20049;-87
2022/09/16 23:12:02;;;;;;;25.60;4.00;;;12.20;99.90;;;;;;4838125;29;20092;-89
2022/09/16 23:15:36;;;;;;;23.88;3.20;;;12.20;99.90;;;;;;4837488;29;20118;-87
2022/09/16 23:18:57;;;;;;;23.23;3.60;;;12.10;99.90;;;;;;4766759;29;20058;-86
2022/09/16 23:21:59;;;;;;;20.15;3.65;;;12.10;99.90;;;;;;4822263;29;20054;-88
2022/09/16 23:31:45;;;;;;;20.80;2.90;;;12.00;99.90;;;;;;5373692;23;20052;-88
2022/09/16 23:44:23;;;;;;;25.42;3.83;;;12.00;99.90;;;;;;4837393;29;19932;-87
2022/09/16 23:46:49;;;;;;;19.40;3.40;;;12.00;99.90;;;;;;4826075;29;20057;-87
2022/09/16 23:49:19;;;;;;;30.40;4.00;;;11.90;99.90;;;;;;4850350;24;20533;-87
2022/09/16 23:52:12;;;;;;;21.45;3.17;;;11.90;99.90;;;;;;4874756;29;20075;-89
2022/09/16 23:54:41;;;;;;;24.17;3.42;;;11.80;99.90;;;;;;4877186;24;20468;-87
2022/09/16 23:57:41;;;;;;;23.15;3.65;;;11.80;99.90;;;;;;4893522;29;20549;-88
